sensor_id;sensor_type;location;lat;lon;timestamp;P1;durP1;ratioP1;P2;durP2;ratioP2
11498;SDS011;5806;48.748;9.278;2023-11-21T00:00:35;9.23;;;4.47;;
11498;SDS011;5806;48.748;9.278;2023-11-21T00:03:02;8.40;;;4.57;;
11498;SDS011;5806;48.748;9.278;2023-11-21T00:05:30;6.70;;;4.83;;
11498;SDS011;5806;48.748;9.278;2023-11-21T00:07:57;7.47;;;4.53;;
11498;SDS011;5806;48.748;9.278;2023-11-21T00:10:25;7.13;;;4.50;;
11498;SDS011;5806;48.748;9.278;2023-11-21T00:12:55;7.50;;;4.53;;
11498;SDS011;5806;48.748;9.278;2023-11-21T00:15:22;7.27;;;4.73;;
11498;SDS011;5806;48.748;9.278;2023-11-21T00:17:50;6.53;;;4.47;;
11498;SDS011;5806;48.748;9.278;2023-11-21T00:20:18;6.60;;;4.23;;
11498;SDS011;5806;48.748;9.278;2023-11-21T00:22:49;6.83;;;4.53;;
11498;SDS011;5806;48.748;9.278;2023-11-21T00:25:17;7.70;;;4.83;;
11498;SDS011;5806;48.748;9.278;2023-11-21T00:27:45;6.73;;;4.07;;
11498;SDS011;5806;48.748;9.278;2023-11-21T00:30:13;9.73;;;5.03;;
11498;SDS011;5806;48.748;9.278;2023-11-21T00:32:41;7.47;;;4.63;;
11498;SDS011;5806;48.748;9.278;2023-11-21T00:35:10;10.07;;;4.87;;
11498;SDS011;5806;48.748;9.278;2023-11-21T00:37:41;8.87;;;4.70;;
11498;SDS011;5806;48.748;9.278;2023-11-21T00:40:09;7.23;;;4.70;;
11498;SDS011;5806;48.748;9.278;2023-11-21T00:42:37;8.87;;;5.17;;
11498;SDS011;5806;48.748;9.278;2023-11-21T00:45:05;7.00;;;4.90;;
11498;SDS011;5806;48.748;9.278;2023-11-21T00:47:34;8.17;;;4.87;;
11498;SDS011;5806;48.748;9.278;2023-11-21T00:50:01;8.80;;;5.33;;
11498;SDS011;5806;48.748;9.278;2023-11-21T00:52:30;6.60;;;5.43;;
11498;SDS011;5806;48.748;9.278;2023-11-21T00:54:58;7.90;;;5.37;;
11498;SDS011;5806;48.748;9.278;2023-11-21T00:57:27;10.17;;;5.17;;
11498;SDS011;5806;48.748;9.278;2023-11-21T00:59:55;9.43;;;6.27;;
11498;SDS011;5806;48.748;9.278;2023-11-21T01:02:23;6.40;;;4.77;;
11498;SDS011;5806;48.748;9.278;2023-11-21T01:04:51;6.97;;;5.20;;
11498;SDS011;5806;48.748;9.278;2023-11-21T01:07:19;10.07;;;5.30;;
11498;SDS011;5806;48.748;9.278;2023-11-21T01:09:48;8.00;;;5.10;;
11498;SDS011;5806;48.748;9.278;2023-11-21T01:12:15;9.10;;;5.00;;
11498;SDS011;5806;48.748;9.278;2023-11-21T01:14:43;7.97;;;5.17;;
11498;SDS011;5806;48.748;9.278;2023-11-21T01:17:11;8.17;;;5.07;;
11498;SDS011;5806;48.748;9.278;2023-11-21T01:19:38;9.40;;;5.13;;
11498;SDS011;5806;48.748;9.278;2023-11-21T01:22:06;8.47;;;4.93;;
11498;SDS011;5806;48.748;9.278;2023-11-21T01:24:34;14.23;;;5.63;;
11498;SDS011;5806;48.748;9.278;2023-11-21T01:27:01;6.73;;;4.63;;
11498;SDS011;5806;48.748;9.278;2023-11-21T01:29:30;7.23;;;4.93;;
11498;SDS011;5806;48.748;9.278;2023-11-21T01:31:57;8.83;;;5.30;;
11498;SDS011;5806;48.748;9.278;2023-11-21T01:34:25;8.40;;;5.10;;
11498;SDS011;5806;48.748;9.278;2023-11-21T01:36:53;9.53;;;5.83;;
11498;SDS011;5806;48.748;9.278;2023-11-21T01:39:20;6.67;;;5.07;;
11498;SDS011;5806;48.748;9.278;2023-11-21T01:41:50;10.93;;;5.10;;
11498;SDS011;5806;48.748;9.278;2023-11-21T01:44:17;14.67;;;5.40;;
11498;SDS011;5806;48.748;9.278;2023-11-21T01:46:45;8.10;;;4.97;;
11498;SDS011;5806;48.748;9.278;2023-11-21T01:49:15;9.63;;;5.43;;
11498;SDS011;5806;48.748;9.278;2023-11-21T01:51:43;8.17;;;5.77;;
11498;SDS011;5806;48.748;9.278;2023-11-21T01:54:15;9.97;;;5.57;;
11498;SDS011;5806;48.748;9.278;2023-11-21T01:56:47;8.93;;;4.97;;
11498;SDS011;5806;48.748;9.278;2023-11-21T01:59:20;9.43;;;5.90;;
11498;SDS011;5806;48.748;9.278;2023-11-21T02:01:48;8.20;;;5.53;;
11498;SDS011;5806;48.748;9.278;2023-11-21T02:04:17;8.57;;;5.67;;
11498;SDS011;5806;48.748;9.278;2023-11-21T02:06:46;10.37;;;5.27;;
11498;SDS011;5806;48.748;9.278;2023-11-21T02:09:24;12.53;;;6.27;;
11498;SDS011;5806;48.748;9.278;2023-11-21T02:11:53;7.83;;;5.00;;
11498;SDS011;5806;48.748;9.278;2023-11-21T02:14:21;8.00;;;5.50;;
11498;SDS011;5806;48.748;9.278;2023-11-21T02:16:50;9.30;;;5.17;;
11498;SDS011;5806;48.748;9.278;2023-11-21T02:19:18;11.43;;;5.63;;
11498;SDS011;5806;48.748;9.278;2023-11-21T02:21:51;7.80;;;5.70;;
11498;SDS011;5806;48.748;9.278;2023-11-21T02:24:20;8.53;;;6.03;;
11498;SDS011;5806;48.748;9.278;2023-11-21T02:26:52;9.40;;;5.30;;
11498;SDS011;5806;48.748;9.278;2023-11-21T02:29:20;9.17;;;5.57;;
11498;SDS011;5806;48.748;9.278;2023-11-21T02:31:51;9.63;;;5.50;;
11498;SDS011;5806;48.748;9.278;2023-11-21T02:34:20;9.43;;;5.80;;
11498;SDS011;5806;48.748;9.278;2023-11-21T02:36:48;11.77;;;6.23;;
11498;SDS011;5806;48.748;9.278;2023-11-21T02:39:16;9.07;;;6.20;;
11498;SDS011;5806;48.748;9.278;2023-11-21T02:41:46;6.97;;;5.67;;
11498;SDS011;5806;48.748;9.278;2023-11-21T02:44:13;12.20;;;6.33;;
11498;SDS011;5806;48.748;9.278;2023-11-21T02:46:41;9.97;;;5.63;;
11498;SDS011;5806;48.748;9.278;2023-11-21T02:49:08;10.03;;;6.03;;
11498;SDS011;5806;48.748;9.278;2023-11-21T02:51:37;9.03;;;5.70;;
11498;SDS011;5806;48.748;9.278;2023-11-21T02:54:09;8.47;;;4.97;;
11498;SDS011;5806;48.748;9.278;2023-11-21T02:56:37;10.80;;;5.90;;
11498;SDS011;5806;48.748;9.278;2023-11-21T02:59:05;8.47;;;5.43;;
11498;SDS011;5806;48.748;9.278;2023-11-21T03:01:33;9.10;;;5.37;;
11498;SDS011;5806;48.748;9.278;2023-11-21T03:04:00;8.17;;;5.53;;
11498;SDS011;5806;48.748;9.278;2023-11-21T03:06:28;7.67;;;6.03;;
11498;SDS011;5806;48.748;9.278;2023-11-21T03:08:55;7.87;;;5.37;;
11498;SDS011;5806;48.748;9.278;2023-11-21T03:11:23;11.70;;;5.37;;
11498;SDS011;5806;48.748;9.278;2023-11-21T03:13:50;8.00;;;5.27;;
11498;SDS011;5806;48.748;9.278;2023-11-21T03:16:18;12.17;;;5.53;;
11498;SDS011;5806;48.748;9.278;2023-11-21T03:18:46;8.87;;;5.93;;
11498;SDS011;5806;48.748;9.278;2023-11-21T03:21:18;10.80;;;5.57;;
11498;SDS011;5806;48.748;9.278;2023-11-21T03:23:44;10.70;;;4.97;;
11498;SDS011;5806;48.748;9.278;2023-11-21T03:26:12;9.57;;;5.83;;
11498;SDS011;5806;48.748;9.278;2023-11-21T03:28:42;10.90;;;6.27;;
11498;SDS011;5806;48.748;9.278;2023-11-21T03:31:09;9.50;;;6.13;;
11498;SDS011;5806;48.748;9.278;2023-11-21T03:33:37;8.63;;;5.27;;
11498;SDS011;5806;48.748;9.278;2023-11-21T03:36:04;8.60;;;5.70;;
11498;SDS011;5806;48.748;9.278;2023-11-21T03:38:33;8.37;;;5.83;;
11498;SDS011;5806;48.748;9.278;2023-11-21T03:41:00;8.83;;;6.30;;
11498;SDS011;5806;48.748;9.278;2023-11-21T03:43:28;9.37;;;5.80;;
11498;SDS011;5806;48.748;9.278;2023-11-21T03:45:58;11.63;;;6.20;;
11498;SDS011;5806;48.748;9.278;2023-11-21T03:48:25;10.13;;;5.70;;
11498;SDS011;5806;48.748;9.278;2023-11-21T03:50:53;7.73;;;5.20;;
11498;SDS011;5806;48.748;9.278;2023-11-21T03:53:20;12.57;;;5.87;;
11498;SDS011;5806;48.748;9.278;2023-11-21T03:55:48;9.70;;;5.30;;
11498;SDS011;5806;48.748;9.278;2023-11-21T03:58:15;9.47;;;6.00;;
11498;SDS011;5806;48.748;9.278;2023-11-21T04:00:43;9.63;;;6.03;;
11498;SDS011;5806;48.748;9.278;2023-11-21T04:03:10;12.10;;;5.87;;
11498;SDS011;5806;48.748;9.278;2023-11-21T04:05:40;8.87;;;6.27;;
11498;SDS011;5806;48.748;9.278;2023-11-21T04:08:07;12.17;;;6.77;;
11498;SDS011;5806;48.748;9.278;2023-11-21T04:10:37;12.47;;;6.50;;
11498;SDS011;5806;48.748;9.278;2023-11-21T04:13:07;11.53;;;7.00;;
11498;SDS011;5806;48.748;9.278;2023-11-21T04:15:34;11.03;;;6.53;;
11498;SDS011;5806;48.748;9.278;2023-11-21T04:18:02;10.40;;;6.67;;
11498;SDS011;5806;48.748;9.278;2023-11-21T04:20:29;10.10;;;5.57;;
11498;SDS011;5806;48.748;9.278;2023-11-21T04:22:58;12.67;;;7.40;;
11498;SDS011;5806;48.748;9.278;2023-11-21T04:25:25;8.83;;;6.57;;
11498;SDS011;5806;48.748;9.278;2023-11-21T04:27:53;8.90;;;6.40;;
11498;SDS011;5806;48.748;9.278;2023-11-21T04:30:21;14.83;;;6.17;;
11498;SDS011;5806;48.748;9.278;2023-11-21T04:32:48;9.87;;;6.60;;
11498;SDS011;5806;48.748;9.278;2023-11-21T04:35:16;10.87;;;6.90;;
11498;SDS011;5806;48.748;9.278;2023-11-21T04:37:44;14.67;;;6.13;;
11498;SDS011;5806;48.748;9.278;2023-11-21T04:40:11;9.10;;;6.23;;
11498;SDS011;5806;48.748;9.278;2023-11-21T04:42:43;14.00;;;7.30;;
11498;SDS011;5806;48.748;9.278;2023-11-21T04:45:10;12.03;;;6.67;;
11498;SDS011;5806;48.748;9.278;2023-11-21T04:47:40;11.33;;;6.80;;
11498;SDS011;5806;48.748;9.278;2023-11-21T04:50:09;13.43;;;7.00;;
11498;SDS011;5806;48.748;9.278;2023-11-21T04:52:37;16.43;;;7.40;;
11498;SDS011;5806;48.748;9.278;2023-11-21T04:55:04;12.83;;;6.57;;
11498;SDS011;5806;48.748;9.278;2023-11-21T04:57:34;11.97;;;7.40;;
11498;SDS011;5806;48.748;9.278;2023-11-21T05:00:02;8.13;;;6.57;;
11498;SDS011;5806;48.748;9.278;2023-11-21T05:02:31;12.97;;;6.67;;
11498;SDS011;5806;48.748;9.278;2023-11-21T05:05:03;9.33;;;6.43;;
11498;SDS011;5806;48.748;9.278;2023-11-21T05:07:32;11.13;;;7.97;;
11498;SDS011;5806;48.748;9.278;2023-11-21T05:10:01;12.03;;;6.73;;
11498;SDS011;5806;48.748;9.278;2023-11-21T05:12:33;10.83;;;7.47;;
11498;SDS011;5806;48.748;9.278;2023-11-21T05:15:08;12.23;;;7.90;;
11498;SDS011;5806;48.748;9.278;2023-11-21T05:17:38;9.97;;;7.13;;
11498;SDS011;5806;48.748;9.278;2023-11-21T05:20:10;9.00;;;6.70;;
11498;SDS011;5806;48.748;9.278;2023-11-21T05:22:42;11.07;;;7.47;;
11498;SDS011;5806;48.748;9.278;2023-11-21T05:25:10;13.43;;;7.40;;
11498;SDS011;5806;48.748;9.278;2023-11-21T05:27:38;15.07;;;7.60;;
11498;SDS011;5806;48.748;9.278;2023-11-21T05:30:05;14.83;;;7.63;;
11498;SDS011;5806;48.748;9.278;2023-11-21T05:32:35;9.27;;;7.50;;
11498;SDS011;5806;48.748;9.278;2023-11-21T05:35:02;10.83;;;7.80;;
11498;SDS011;5806;48.748;9.278;2023-11-21T05:37:32;13.47;;;8.00;;
11498;SDS011;5806;48.748;9.278;2023-11-21T05:39:59;13.53;;;7.90;;
11498;SDS011;5806;48.748;9.278;2023-11-21T05:42:28;14.93;;;8.47;;
11498;SDS011;5806;48.748;9.278;2023-11-21T05:44:56;11.23;;;8.37;;
11498;SDS011;5806;48.748;9.278;2023-11-21T05:47:25;13.30;;;8.13;;
11498;SDS011;5806;48.748;9.278;2023-11-21T05:49:53;11.50;;;7.77;;
11498;SDS011;5806;48.748;9.278;2023-11-21T05:52:21;13.70;;;8.13;;
11498;SDS011;5806;48.748;9.278;2023-11-21T05:54:49;13.90;;;8.17;;
11498;SDS011;5806;48.748;9.278;2023-11-21T05:57:17;11.87;;;7.57;;
11498;SDS011;5806;48.748;9.278;2023-11-21T05:59:44;13.17;;;7.53;;
11498;SDS011;5806;48.748;9.278;2023-11-21T06:02:12;10.57;;;7.30;;
11498;SDS011;5806;48.748;9.278;2023-11-21T06:04:40;18.50;;;7.47;;
11498;SDS011;5806;48.748;9.278;2023-11-21T06:07:13;10.87;;;7.63;;
11498;SDS011;5806;48.748;9.278;2023-11-21T06:09:41;12.47;;;7.97;;
11498;SDS011;5806;48.748;9.278;2023-11-21T06:12:10;10.47;;;7.90;;
11498;SDS011;5806;48.748;9.278;2023-11-21T06:14:37;13.47;;;7.53;;
11498;SDS011;5806;48.748;9.278;2023-11-21T06:17:07;12.23;;;8.07;;
11498;SDS011;5806;48.748;9.278;2023-11-21T06:19:35;12.83;;;8.13;;
11498;SDS011;5806;48.748;9.278;2023-11-21T06:22:03;13.43;;;7.97;;
11498;SDS011;5806;48.748;9.278;2023-11-21T06:24:30;12.80;;;8.57;;
11498;SDS011;5806;48.748;9.278;2023-11-21T06:26:57;12.30;;;8.17;;
11498;SDS011;5806;48.748;9.278;2023-11-21T06:29:25;12.73;;;7.83;;
11498;SDS011;5806;48.748;9.278;2023-11-21T06:31:53;13.47;;;8.20;;
11498;SDS011;5806;48.748;9.278;2023-11-21T06:34:20;16.30;;;8.97;;
11498;SDS011;5806;48.748;9.278;2023-11-21T06:36:48;16.67;;;8.53;;
11498;SDS011;5806;48.748;9.278;2023-11-21T06:39:18;14.60;;;8.40;;
11498;SDS011;5806;48.748;9.278;2023-11-21T06:41:47;15.77;;;8.87;;
11498;SDS011;5806;48.748;9.278;2023-11-21T06:44:16;13.47;;;9.20;;
11498;SDS011;5806;48.748;9.278;2023-11-21T06:46:45;19.20;;;9.17;;
11498;SDS011;5806;48.748;9.278;2023-11-21T06:49:14;14.43;;;8.60;;
11498;SDS011;5806;48.748;9.278;2023-11-21T06:51:41;15.27;;;9.33;;
11498;SDS011;5806;48.748;9.278;2023-11-21T06:54:09;14.37;;;9.40;;
11498;SDS011;5806;48.748;9.278;2023-11-21T06:56:36;15.20;;;9.83;;
11498;SDS011;5806;48.748;9.278;2023-11-21T06:59:04;14.20;;;9.20;;
11498;SDS011;5806;48.748;9.278;2023-11-21T07:01:32;15.53;;;8.57;;
11498;SDS011;5806;48.748;9.278;2023-11-21T07:04:01;12.97;;;8.07;;
11498;SDS011;5806;48.748;9.278;2023-11-21T07:06:29;12.47;;;8.03;;
11498;SDS011;5806;48.748;9.278;2023-11-21T07:08:56;13.03;;;8.77;;
11498;SDS011;5806;48.748;9.278;2023-11-21T07:11:24;15.50;;;9.40;;
11498;SDS011;5806;48.748;9.278;2023-11-21T07:13:51;18.93;;;9.80;;
11498;SDS011;5806;48.748;9.278;2023-11-21T07:16:19;13.23;;;8.90;;
11498;SDS011;5806;48.748;9.278;2023-11-21T07:18:47;12.17;;;8.77;;
11498;SDS011;5806;48.748;9.278;2023-11-21T07:21:15;14.43;;;9.23;;
11498;SDS011;5806;48.748;9.278;2023-11-21T07:23:42;20.80;;;9.40;;
11498;SDS011;5806;48.748;9.278;2023-11-21T07:26:10;14.87;;;9.57;;
11498;SDS011;5806;48.748;9.278;2023-11-21T07:28:37;16.87;;;10.20;;
11498;SDS011;5806;48.748;9.278;2023-11-21T07:31:05;17.00;;;9.70;;
11498;SDS011;5806;48.748;9.278;2023-11-21T07:33:32;12.50;;;9.40;;
11498;SDS011;5806;48.748;9.278;2023-11-21T07:36:00;18.37;;;9.93;;
11498;SDS011;5806;48.748;9.278;2023-11-21T07:38:27;19.30;;;9.70;;
11498;SDS011;5806;48.748;9.278;2023-11-21T07:40:55;15.23;;;10.17;;
11498;SDS011;5806;48.748;9.278;2023-11-21T07:43:22;14.90;;;9.67;;
11498;SDS011;5806;48.748;9.278;2023-11-21T07:45:49;17.00;;;10.80;;
11498;SDS011;5806;48.748;9.278;2023-11-21T07:48:17;12.67;;;9.73;;
11498;SDS011;5806;48.748;9.278;2023-11-21T07:50:44;16.27;;;10.10;;
11498;SDS011;5806;48.748;9.278;2023-11-21T07:53:13;15.37;;;10.07;;
11498;SDS011;5806;48.748;9.278;2023-11-21T07:55:40;16.50;;;10.77;;
11498;SDS011;5806;48.748;9.278;2023-11-21T07:58:08;17.13;;;10.67;;
11498;SDS011;5806;48.748;9.278;2023-11-21T08:00:35;18.37;;;10.43;;
11498;SDS011;5806;48.748;9.278;2023-11-21T08:03:05;16.93;;;11.30;;
11498;SDS011;5806;48.748;9.278;2023-11-21T08:05:32;18.13;;;10.90;;
11498;SDS011;5806;48.748;9.278;2023-11-21T08:08:00;18.23;;;11.43;;
11498;SDS011;5806;48.748;9.278;2023-11-21T08:10:27;22.23;;;12.53;;
11498;SDS011;5806;48.748;9.278;2023-11-21T08:12:55;20.27;;;11.67;;
11498;SDS011;5806;48.748;9.278;2023-11-21T08:15:23;18.67;;;12.37;;
11498;SDS011;5806;48.748;9.278;2023-11-21T08:17:51;17.13;;;11.53;;
11498;SDS011;5806;48.748;9.278;2023-11-21T08:20:19;21.60;;;12.90;;
11498;SDS011;5806;48.748;9.278;2023-11-21T08:22:48;17.43;;;11.83;;
11498;SDS011;5806;48.748;9.278;2023-11-21T08:25:15;16.90;;;11.60;;
11498;SDS011;5806;48.748;9.278;2023-11-21T08:27:44;24.40;;;12.70;;
11498;SDS011;5806;48.748;9.278;2023-11-21T08:30:12;21.30;;;12.80;;
11498;SDS011;5806;48.748;9.278;2023-11-21T08:32:44;22.83;;;12.93;;
11498;SDS011;5806;48.748;9.278;2023-11-21T08:35:12;21.20;;;13.90;;
11498;SDS011;5806;48.748;9.278;2023-11-21T08:37:39;25.83;;;14.37;;
11498;SDS011;5806;48.748;9.278;2023-11-21T08:40:07;26.13;;;14.97;;
11498;SDS011;5806;48.748;9.278;2023-11-21T08:42:39;31.27;;;14.83;;
11498;SDS011;5806;48.748;9.278;2023-11-21T08:45:07;34.97;;;14.80;;
11498;SDS011;5806;48.748;9.278;2023-11-21T08:47:35;29.53;;;16.47;;
11498;SDS011;5806;48.748;9.278;2023-11-21T08:50:02;30.03;;;16.60;;
11498;SDS011;5806;48.748;9.278;2023-11-21T08:52:31;35.43;;;17.53;;
11498;SDS011;5806;48.748;9.278;2023-11-21T08:54:59;35.43;;;18.07;;
11498;SDS011;5806;48.748;9.278;2023-11-21T08:57:28;35.13;;;18.50;;
11498;SDS011;5806;48.748;9.278;2023-11-21T08:59:55;37.40;;;18.13;;
11498;SDS011;5806;48.748;9.278;2023-11-21T09:02:23;31.30;;;17.73;;
11498;SDS011;5806;48.748;9.278;2023-11-21T09:04:52;37.50;;;19.00;;
11498;SDS011;5806;48.748;9.278;2023-11-21T09:07:19;44.47;;;19.90;;
11498;SDS011;5806;48.748;9.278;2023-11-21T09:09:47;46.80;;;20.80;;
11498;SDS011;5806;48.748;9.278;2023-11-21T09:12:15;39.30;;;19.43;;
11498;SDS011;5806;48.748;9.278;2023-11-21T09:14:44;35.43;;;19.77;;
11498;SDS011;5806;48.748;9.278;2023-11-21T09:17:11;40.20;;;20.47;;
11498;SDS011;5806;48.748;9.278;2023-11-21T09:19:40;40.97;;;19.47;;
11498;SDS011;5806;48.748;9.278;2023-11-21T09:22:09;43.23;;;21.30;;
11498;SDS011;5806;48.748;9.278;2023-11-21T09:24:37;56.30;;;21.20;;
11498;SDS011;5806;48.748;9.278;2023-11-21T09:27:04;44.43;;;20.73;;
11498;SDS011;5806;48.748;9.278;2023-11-21T09:29:31;42.87;;;20.50;;
11498;SDS011;5806;48.748;9.278;2023-11-21T09:31:59;43.27;;;20.23;;
11498;SDS011;5806;48.748;9.278;2023-11-21T09:34:27;41.73;;;21.13;;
11498;SDS011;5806;48.748;9.278;2023-11-21T09:36:54;44.67;;;20.43;;
11498;SDS011;5806;48.748;9.278;2023-11-21T09:39:21;47.37;;;21.20;;
11498;SDS011;5806;48.748;9.278;2023-11-21T09:41:50;39.67;;;19.53;;
11498;SDS011;5806;48.748;9.278;2023-11-21T09:44:31;43.83;;;20.90;;
11498;SDS011;5806;48.748;9.278;2023-11-21T09:46:59;47.77;;;20.73;;
11498;SDS011;5806;48.748;9.278;2023-11-21T09:49:26;44.67;;;21.20;;
11498;SDS011;5806;48.748;9.278;2023-11-21T09:51:57;41.93;;;20.70;;
11498;SDS011;5806;48.748;9.278;2023-11-21T09:54:29;47.03;;;20.93;;
11498;SDS011;5806;48.748;9.278;2023-11-21T09:56:59;44.83;;;20.50;;
11498;SDS011;5806;48.748;9.278;2023-11-21T09:59:28;39.60;;;20.77;;
11498;SDS011;5806;48.748;9.278;2023-11-21T10:01:58;40.57;;;19.70;;
11498;SDS011;5806;48.748;9.278;2023-11-21T10:04:25;41.63;;;21.53;;
11498;SDS011;5806;48.748;9.278;2023-11-21T10:06:54;44.43;;;21.40;;
11498;SDS011;5806;48.748;9.278;2023-11-21T10:09:23;43.17;;;21.37;;
11498;SDS011;5806;48.748;9.278;2023-11-21T10:11:52;48.33;;;21.23;;
11498;SDS011;5806;48.748;9.278;2023-11-21T10:14:22;50.87;;;23.67;;
11498;SDS011;5806;48.748;9.278;2023-11-21T10:16:54;53.90;;;24.03;;
11498;SDS011;5806;48.748;9.278;2023-11-21T10:19:22;59.07;;;25.20;;
11498;SDS011;5806;48.748;9.278;2023-11-21T10:21:50;54.20;;;25.27;;
11498;SDS011;5806;48.748;9.278;2023-11-21T10:24:18;58.33;;;26.70;;
11498;SDS011;5806;48.748;9.278;2023-11-21T10:26:45;61.67;;;27.43;;
11498;SDS011;5806;48.748;9.278;2023-11-21T10:29:14;59.70;;;26.07;;
11498;SDS011;5806;48.748;9.278;2023-11-21T10:31:42;64.00;;;26.87;;
11498;SDS011;5806;48.748;9.278;2023-11-21T10:34:17;60.57;;;26.47;;
11498;SDS011;5806;48.748;9.278;2023-11-21T10:36:45;64.53;;;27.23;;
11498;SDS011;5806;48.748;9.278;2023-11-21T10:39:14;60.40;;;28.10;;
11498;SDS011;5806;48.748;9.278;2023-11-21T10:41:46;59.90;;;27.03;;
11498;SDS011;5806;48.748;9.278;2023-11-21T10:44:17;57.60;;;27.93;;
11498;SDS011;5806;48.748;9.278;2023-11-21T10:46:49;55.30;;;27.67;;
11498;SDS011;5806;48.748;9.278;2023-11-21T10:49:28;59.57;;;29.07;;
11498;SDS011;5806;48.748;9.278;2023-11-21T10:51:55;53.67;;;28.07;;
11498;SDS011;5806;48.748;9.278;2023-11-21T10:54:23;60.30;;;28.80;;
11498;SDS011;5806;48.748;9.278;2023-11-21T10:56:53;60.90;;;29.50;;
11498;SDS011;5806;48.748;9.278;2023-11-21T10:59:25;63.43;;;29.33;;
11498;SDS011;5806;48.748;9.278;2023-11-21T11:01:55;57.33;;;27.37;;
11498;SDS011;5806;48.748;9.278;2023-11-21T11:04:27;50.10;;;26.93;;
11498;SDS011;5806;48.748;9.278;2023-11-21T11:06:55;61.03;;;28.13;;
11498;SDS011;5806;48.748;9.278;2023-11-21T11:09:25;55.17;;;26.77;;
11498;SDS011;5806;48.748;9.278;2023-11-21T11:11:53;60.63;;;29.57;;
11498;SDS011;5806;48.748;9.278;2023-11-21T11:14:21;58.07;;;28.57;;
11498;SDS011;5806;48.748;9.278;2023-11-21T11:16:53;58.40;;;28.40;;
11498;SDS011;5806;48.748;9.278;2023-11-21T11:19:21;55.70;;;28.17;;
11498;SDS011;5806;48.748;9.278;2023-11-21T11:24:44;56.13;;;29.37;;
11498;SDS011;5806;48.748;9.278;2023-11-21T11:27:30;57.73;;;27.97;;
11498;SDS011;5806;48.748;9.278;2023-11-21T11:30:20;47.10;;;25.27;;
11498;SDS011;5806;48.748;9.278;2023-11-21T11:35:56;50.23;;;24.60;;
11498;SDS011;5806;48.748;9.278;2023-11-21T11:38:45;48.20;;;24.37;;
11498;SDS011;5806;48.748;9.278;2023-11-21T11:41:27;47.33;;;24.50;;
11498;SDS011;5806;48.748;9.278;2023-11-21T11:43:58;48.23;;;23.77;;
11498;SDS011;5806;48.748;9.278;2023-11-21T11:46:40;45.93;;;23.53;;
11498;SDS011;5806;48.748;9.278;2023-11-21T11:49:24;45.77;;;23.50;;
11498;SDS011;5806;48.748;9.278;2023-11-21T11:52:36;44.13;;;23.27;;
11498;SDS011;5806;48.748;9.278;2023-11-21T11:54:43;43.50;;;21.07;;
11498;SDS011;5806;48.748;9.278;2023-11-21T11:57:11;44.97;;;21.40;;
11498;SDS011;5806;48.748;9.278;2023-11-21T12:02:39;39.37;;;21.40;;
11498;SDS011;5806;48.748;9.278;2023-11-21T12:05:08;50.27;;;21.67;;
11498;SDS011;5806;48.748;9.278;2023-11-21T12:07:49;41.57;;;21.37;;
11498;SDS011;5806;48.748;9.278;2023-11-21T12:15:31;45.20;;;21.77;;
11498;SDS011;5806;48.748;9.278;2023-11-21T12:17:56;60.90;;;23.67;;
11498;SDS011;5806;48.748;9.278;2023-11-21T12:20:25;63.83;;;23.47;;
11498;SDS011;5806;48.748;9.278;2023-11-21T12:22:54;59.73;;;24.20;;
11498;SDS011;5806;48.748;9.278;2023-11-21T12:25:29;57.80;;;23.90;;
11498;SDS011;5806;48.748;9.278;2023-11-21T12:28:02;45.00;;;22.33;;
11498;SDS011;5806;48.748;9.278;2023-11-21T12:30:30;44.03;;;22.70;;
11498;SDS011;5806;48.748;9.278;2023-11-21T12:32:59;45.67;;;23.13;;
11498;SDS011;5806;48.748;9.278;2023-11-21T12:35:27;48.00;;;24.17;;
11498;SDS011;5806;48.748;9.278;2023-11-21T12:37:58;47.50;;;23.73;;
11498;SDS011;5806;48.748;9.278;2023-11-21T12:40:28;47.40;;;24.33;;
11498;SDS011;5806;48.748;9.278;2023-11-21T12:42:56;52.03;;;24.77;;
11498;SDS011;5806;48.748;9.278;2023-11-21T12:45:27;50.37;;;23.60;;
11498;SDS011;5806;48.748;9.278;2023-11-21T12:47:57;56.07;;;25.30;;
11498;SDS011;5806;48.748;9.278;2023-11-21T12:50:29;51.40;;;25.23;;
11498;SDS011;5806;48.748;9.278;2023-11-21T12:53:03;49.07;;;22.20;;
11498;SDS011;5806;48.748;9.278;2023-11-21T12:55:34;46.73;;;22.23;;
11498;SDS011;5806;48.748;9.278;2023-11-21T12:58:08;48.00;;;22.13;;
11498;SDS011;5806;48.748;9.278;2023-11-21T13:00:42;51.17;;;22.83;;
11498;SDS011;5806;48.748;9.278;2023-11-21T13:03:08;49.17;;;23.40;;
11498;SDS011;5806;48.748;9.278;2023-11-21T13:05:38;48.57;;;22.80;;
11498;SDS011;5806;48.748;9.278;2023-11-21T13:08:14;42.97;;;21.00;;
11498;SDS011;5806;48.748;9.278;2023-11-21T13:10:44;49.33;;;22.10;;
11498;SDS011;5806;48.748;9.278;2023-11-21T13:13:15;44.30;;;22.57;;
11498;SDS011;5806;48.748;9.278;2023-11-21T13:15:52;45.20;;;20.60;;
11498;SDS011;5806;48.748;9.278;2023-11-21T13:18:25;45.27;;;21.77;;
11498;SDS011;5806;48.748;9.278;2023-11-21T13:20:58;42.93;;;21.60;;
11498;SDS011;5806;48.748;9.278;2023-11-21T13:23:26;43.33;;;20.00;;
11498;SDS011;5806;48.748;9.278;2023-11-21T13:25:54;43.30;;;20.43;;
11498;SDS011;5806;48.748;9.278;2023-11-21T13:28:23;49.23;;;21.77;;
11498;SDS011;5806;48.748;9.278;2023-11-21T13:30:52;43.07;;;20.87;;
11498;SDS011;5806;48.748;9.278;2023-11-21T13:33:21;42.20;;;21.10;;
11498;SDS011;5806;48.748;9.278;2023-11-21T13:35:50;39.23;;;19.57;;
11498;SDS011;5806;48.748;9.278;2023-11-21T13:38:18;41.73;;;20.30;;
11498;SDS011;5806;48.748;9.278;2023-11-21T13:40:48;43.27;;;19.90;;
11498;SDS011;5806;48.748;9.278;2023-11-21T13:43:24;44.87;;;19.50;;
11498;SDS011;5806;48.748;9.278;2023-11-21T13:45:50;37.57;;;17.90;;
11498;SDS011;5806;48.748;9.278;2023-11-21T13:48:20;36.13;;;17.83;;
11498;SDS011;5806;48.748;9.278;2023-11-21T13:50:49;36.27;;;17.10;;
11498;SDS011;5806;48.748;9.278;2023-11-21T13:53:18;39.03;;;17.43;;
11498;SDS011;5806;48.748;9.278;2023-11-21T13:55:47;36.00;;;15.90;;
11498;SDS011;5806;48.748;9.278;2023-11-21T13:58:16;37.17;;;16.17;;
11498;SDS011;5806;48.748;9.278;2023-11-21T14:00:51;36.77;;;16.60;;
11498;SDS011;5806;48.748;9.278;2023-11-21T14:03:24;35.53;;;16.07;;
11498;SDS011;5806;48.748;9.278;2023-11-21T14:06:00;38.33;;;16.73;;
11498;SDS011;5806;48.748;9.278;2023-11-21T14:08:30;41.03;;;19.27;;
11498;SDS011;5806;48.748;9.278;2023-11-21T14:11:00;41.57;;;19.17;;
11498;SDS011;5806;48.748;9.278;2023-11-21T14:13:27;42.43;;;18.00;;
11498;SDS011;5806;48.748;9.278;2023-11-21T14:15:55;41.33;;;18.97;;
11498;SDS011;5806;48.748;9.278;2023-11-21T14:18:28;43.80;;;20.10;;
11498;SDS011;5806;48.748;9.278;2023-11-21T14:21:02;46.03;;;18.83;;
11498;SDS011;5806;48.748;9.278;2023-11-21T14:23:31;40.43;;;18.67;;
11498;SDS011;5806;48.748;9.278;2023-11-21T14:26:00;39.53;;;18.57;;
11498;SDS011;5806;48.748;9.278;2023-11-21T14:28:28;40.93;;;18.77;;
11498;SDS011;5806;48.748;9.278;2023-11-21T14:30:55;38.13;;;18.97;;
11498;SDS011;5806;48.748;9.278;2023-11-21T14:33:23;41.73;;;18.27;;
11498;SDS011;5806;48.748;9.278;2023-11-21T14:35:50;44.50;;;18.27;;
11498;SDS011;5806;48.748;9.278;2023-11-21T14:38:18;41.50;;;17.77;;
11498;SDS011;5806;48.748;9.278;2023-11-21T14:40:45;41.70;;;17.87;;
11498;SDS011;5806;48.748;9.278;2023-11-21T14:43:13;39.67;;;17.60;;
11498;SDS011;5806;48.748;9.278;2023-11-21T14:45:42;42.60;;;18.77;;
11498;SDS011;5806;48.748;9.278;2023-11-21T14:48:09;42.03;;;17.77;;
11498;SDS011;5806;48.748;9.278;2023-11-21T14:50:44;42.27;;;18.60;;
11498;SDS011;5806;48.748;9.278;2023-11-21T14:53:16;49.17;;;20.33;;
11498;SDS011;5806;48.748;9.278;2023-11-21T14:55:45;41.10;;;19.27;;
11498;SDS011;5806;48.748;9.278;2023-11-21T14:58:17;39.63;;;18.70;;
11498;SDS011;5806;48.748;9.278;2023-11-21T15:00:59;47.97;;;19.43;;
11498;SDS011;5806;48.748;9.278;2023-11-21T15:03:27;42.57;;;18.50;;
11498;SDS011;5806;48.748;9.278;2023-11-21T15:06:00;41.27;;;19.10;;
11498;SDS011;5806;48.748;9.278;2023-11-21T15:08:50;40.87;;;19.90;;
11498;SDS011;5806;48.748;9.278;2023-11-21T15:11:21;43.57;;;18.73;;